Time;durP1;ratioP1;P1;durP2;ratioP2;P2;SDS_P1;SDS_P2;PMS_P1;PMS_P2;Temp;Humidity;BMP_temperature;BMP_pressure;BME280_temperature;BME280_humidity;BME280_pressure;Samples;Min_cycle;Max_cycle;Signal;HPM_P1;HPM_P2
2021/06/03 00:00:51;;;;;;;6.47;3.20;;;14.40;99.90;;;;;;5079539;28;20024;-61
2021/06/03 00:03:19;;;;;;;4.72;2.13;;;14.30;99.90;;;;;;5100993;28;20097;-61
2021/06/03 00:05:55;;;;;;;6.47;2.35;;;14.30;99.90;;;;;;5100688;28;20026;-61
2021/06/03 00:08:24;;;;;;;2.90;1.87;;;14.20;99.90;;;;;;5100628;28;20020;-61
2021/06/03 00:11:08;;;;;;;7.05;2.53;;;14.20;99.90;;;;;;5100363;28;20264;-61
2021/06/03 00:13:39;;;;;;;3.90;2.58;;;14.20;99.90;;;;;;5102032;28;20026;-61
2021/06/03 00:16:11;;;;;;;9.95;2.92;;;14.10;99.90;;;;;;5083446;28;20035;-61
2021/06/03 00:18:40;;;;;;;6.40;2.65;;;14.10;99.90;;;;;;5101756;28;20020;-61
2021/06/03 00:21:08;;;;;;;3.08;2.50;;;14.10;99.90;;;;;;5101276;28;20028;-61
2021/06/03 00:23:36;;;;;;;3.28;2.25;;;14.10;99.90;;;;;;5101495;28;20100;-61
2021/06/03 00:26:05;;;;;;;3.53;2.50;;;14.00;99.90;;;;;;5083888;28;20320;-61
2021/06/03 00:28:33;;;;;;;6.20;2.42;;;14.00;99.90;;;;;;5101552;28;20023;-61
2021/06/03 00:31:00;;;;;;;6.15;2.70;;;14.00;99.90;;;;;;5100945;28;20025;-61
2021/06/03 00:33:28;;;;;;;5.13;2.65;;;14.00;99.90;;;;;;5082382;28;20158;-61
2021/06/03 00:35:56;;;;;;;9.07;2.45;;;13.90;99.90;;;;;;5082198;28;20328;-61
2021/06/03 00:38:23;;;;;;;7.40;2.25;;;13.90;99.90;;;;;;5081993;28;20432;-61
2021/06/03 00:40:51;;;;;;;6.38;2.50;;;13.90;99.90;;;;;;5099935;28;20028;-61
2021/06/03 00:43:19;;;;;;;4.20;2.50;;;13.80;99.90;;;;;;5100626;28;20076;-61
2021/06/03 00:45:47;;;;;;;4.68;2.40;;;13.80;99.90;;;;;;5099626;28;20032;-61
2021/06/03 00:48:15;;;;;;;6.78;2.75;;;13.70;99.90;;;;;;5100046;28;20035;-61
2021/06/03 00:50:51;;;;;;;4.10;2.50;;;13.60;99.90;;;;;;5099907;28;20149;-61
2021/06/03 00:53:19;;;;;;;5.57;2.72;;;13.50;99.90;;;;;;5100374;28;20050;-61
2021/06/03 00:55:57;;;;;;;4.38;2.65;;;13.40;99.90;;;;;;5100693;28;20032;-61
2021/06/03 00:58:26;;;;;;;3.28;2.25;;;13.30;99.90;;;;;;5101112;28;20028;-61
2021/06/03 01:00:55;;;;;;;5.13;3.00;;;13.30;99.90;;;;;;5100827;28;20055;-61
2021/06/03 01:03:25;;;;;;;10.40;3.58;;;13.20;99.90;;;;;;5100515;28;20048;-61
2021/06/03 01:06:03;;;;;;;8.30;2.60;;;13.20;99.90;;;;;;5100911;28;20086;-60
2021/06/03 01:08:38;;;;;;;4.50;2.25;;;13.10;99.90;;;;;;5100681;28;20370;-61
2021/06/03 01:11:18;;;;;;;4.15;2.40;;;13.10;99.90;;;;;;5100864;28;20020;-61
2021/06/03 01:13:49;;;;;;;7.65;2.92;;;13.10;99.90;;;;;;5099186;28;20099;-61
2021/06/03 01:16:18;;;;;;;5.20;2.30;;;13.10;99.90;;;;;;5099324;28;20024;-61
2021/06/03 01:18:46;;;;;;;4.95;2.47;;;13.10;99.90;;;;;;5099786;28;20039;-61
2021/06/03 01:21:30;;;;;;;6.63;2.70;;;13.10;99.90;;;;;;5099344;28;20024;-61
2021/06/03 01:24:21;;;;;;;6.72;2.53;;;13.10;99.90;;;;;;5099385;28;20114;-61
2021/06/03 01:26:49;;;;;;;6.60;2.53;;;13.20;99.90;;;;;;5099707;28;20126;-61
2021/06/03 01:29:18;;;;;;;4.68;2.60;;;13.20;99.90;;;;;;5099262;28;20020;-61
2021/06/03 01:31:50;;;;;;;5.93;2.60;;;13.20;99.90;;;;;;5081728;28;20097;-61
2021/06/03 01:34:20;;;;;;;4.78;2.60;;;13.20;99.90;;;;;;5099938;28;20024;-61
2021/06/03 01:36:49;;;;;;;3.80;2.42;;;13.30;99.90;;;;;;5099694;28;20035;-60
2021/06/03 01:39:18;;;;;;;7.03;2.75;;;13.30;99.90;;;;;;5100667;28;20028;-61
2021/06/03 01:41:46;;;;;;;4.07;2.20;;;13.30;99.90;;;;;;5099805;28;20047;-61
2021/06/03 01:44:14;;;;;;;7.82;3.00;;;13.20;99.90;;;;;;5099786;28;20031;-61
2021/06/03 01:46:42;;;;;;;7.47;2.28;;;13.20;99.90;;;;;;5099608;28;20020;-61
2021/06/03 01:49:09;;;;;;;10.15;3.03;;;13.20;99.90;;;;;;5099874;28;20435;-61
2021/06/03 01:51:37;;;;;;;5.75;2.47;;;13.20;99.90;;;;;;5098708;28;20329;-61
2021/06/03 01:54:04;;;;;;;3.20;2.28;;;13.20;99.90;;;;;;5098621;28;20074;-61
2021/06/03 01:56:36;;;;;;;8.20;2.92;;;13.10;99.90;;;;;;5098837;28;20108;-61
2021/06/03 01:59:04;;;;;;;5.28;2.40;;;13.10;99.90;;;;;;5098905;28;20052;-61
2021/06/03 02:01:32;;;;;;;4.72;2.63;;;13.00;99.90;;;;;;5099109;28;20016;-61
2021/06/03 02:04:00;;;;;;;3.80;2.70;;;13.00;99.90;;;;;;5098468;28;20048;-61
2021/06/03 02:06:27;;;;;;;6.22;2.53;;;13.00;99.90;;;;;;5098174;28;20028;-61
2021/06/03 02:08:55;;;;;;;4.65;2.55;;;13.00;99.90;;;;;;5080338;28;20020;-61
2021/06/03 02:11:22;;;;;;;7.63;3.08;;;12.90;99.90;;;;;;5065260;28;20103;-61
2021/06/03 02:13:55;;;;;;;9.27;3.03;;;12.90;99.90;;;;;;5081514;28;20031;-61
2021/06/03 02:16:49;;;;;;;5.43;2.60;;;12.90;99.90;;;;;;5099031;28;20020;-61
2021/06/03 02:19:34;;;;;;;11.60;3.28;;;12.90;99.90;;;;;;5099108;28;20023;-61
2021/06/03 02:22:04;;;;;;;7.75;3.03;;;12.90;99.90;;;;;;5098935;28;20328;-61
2021/06/03 02:24:32;;;;;;;9.23;2.85;;;12.80;99.90;;;;;;5099175;28;20028;-61
2021/06/03 02:27:01;;;;;;;11.27;3.00;;;12.70;99.90;;;;;;5098864;28;20077;-61
2021/06/03 02:29:29;;;;;;;4.78;3.03;;;12.70;99.90;;;;;;5098275;28;20035;-61
2021/06/03 02:31:57;;;;;;;11.25;2.85;;;12.60;99.90;;;;;;5098509;28;20424;-61
2021/06/03 02:34:25;;;;;;;6.75;2.60;;;12.50;99.90;;;;;;5098214;28;20047;-61
2021/06/03 02:36:53;;;;;;;6.35;2.88;;;12.40;99.90;;;;;;5097693;28;20024;-61
2021/06/03 02:39:21;;;;;;;8.00;2.70;;;12.30;99.90;;;;;;5098226;28;20031;-61
2021/06/03 02:41:50;;;;;;;5.18;2.75;;;12.20;99.90;;;;;;5098061;28;20411;-61
2021/06/03 02:44:18;;;;;;;7.13;2.90;;;12.20;99.90;;;;;;5097620;28;20028;-61
2021/06/03 02:46:47;;;;;;;4.35;2.95;;;12.20;99.90;;;;;;5097775;28;20415;-61
2021/06/03 02:49:14;;;;;;;5.18;2.70;;;12.20;99.90;;;;;;5097890;28;20320;-61
2021/06/03 02:51:42;;;;;;;7.20;3.28;;;12.20;99.90;;;;;;5098410;28;20086;-61
2021/06/03 02:54:11;;;;;;;10.65;2.92;;;12.20;99.90;;;;;;5080428;28;20016;-60
2021/06/03 02:56:38;;;;;;;7.20;2.78;;;12.10;99.90;;;;;;5098692;28;20327;-61
2021/06/03 02:59:05;;;;;;;5.35;3.10;;;12.10;99.90;;;;;;5098776;28;20024;-61
2021/06/03 03:01:33;;;;;;;9.82;3.00;;;12.10;99.90;;;;;;5081071;28;20020;-61
2021/06/03 03:04:00;;;;;;;5.10;2.97;;;12.10;99.90;;;;;;5097882;28;20059;-61
2021/06/03 03:06:28;;;;;;;8.15;3.25;;;12.10;99.90;;;;;;5080471;28;20111;-61
2021/06/03 03:08:55;;;;;;;4.55;2.70;;;12.10;99.90;;;;;;5079328;28;20027;-61
2021/06/03 03:11:22;;;;;;;6.35;3.13;;;12.10;99.90;;;;;;5097183;28;20020;-61
2021/06/03 03:13:50;;;;;;;14.98;3.90;;;12.00;99.90;;;;;;5079347;28;20024;-61
2021/06/03 03:16:17;;;;;;;15.48;3.55;;;12.10;99.90;;;;;;5097130;28;20311;-61
2021/06/03 03:18:45;;;;;;;10.02;2.85;;;12.10;99.90;;;;;;5097674;28;20101;-61
2021/06/03 03:21:13;;;;;;;5.15;2.80;;;12.10;99.90;;;;;;5079009;28;20027;-61
2021/06/03 03:23:41;;;;;;;5.07;2.90;;;12.10;99.90;;;;;;5097162;28;20020;-61
2021/06/03 03:26:09;;;;;;;10.18;3.35;;;12.10;99.90;;;;;;5097047;28;20036;-61
2021/06/03 03:28:37;;;;;;;4.55;3.13;;;12.20;99.90;;;;;;5097207;28;20419;-61
2021/06/03 03:31:04;;;;;;;9.35;2.90;;;12.10;99.90;;;;;;5097830;28;20017;-61
2021/06/03 03:33:34;;;;;;;9.00;3.50;;;12.10;99.90;;;;;;5080321;28;20074;-61
2021/06/03 03:36:02;;;;;;;7.07;3.08;;;12.20;99.90;;;;;;5097498;28;20111;-61
2021/06/03 03:38:30;;;;;;;5.50;2.67;;;12.20;99.90;;;;;;5097486;28;20024;-61
2021/06/03 03:40:58;;;;;;;7.80;3.15;;;12.20;99.90;;;;;;5097615;28;20411;-61
2021/06/03 03:43:26;;;;;;;13.52;2.75;;;12.20;99.90;;;;;;5097766;28;20024;-61
2021/06/03 03:45:54;;;;;;;4.22;3.08;;;12.20;99.90;;;;;;5097568;28;20474;-61
2021/06/03 03:48:22;;;;;;;10.15;2.45;;;12.30;99.90;;;;;;5096877;28;20403;-61
2021/06/03 03:50:49;;;;;;;6.72;2.88;;;12.30;99.90;;;;;;5096897;28;20343;-61
2021/06/03 03:53:17;;;;;;;6.40;2.72;;;12.40;99.90;;;;;;5096632;28;20025;-61
2021/06/03 03:55:44;;;;;;;8.45;2.67;;;12.50;99.90;;;;;;5096541;28;20031;-61
2021/06/03 03:58:12;;;;;;;3.90;3.00;;;12.50;99.90;;;;;;5096503;28;20028;-61
2021/06/03 04:00:39;;;;;;;5.03;3.15;;;12.60;99.90;;;;;;5078685;28;20332;-61
2021/06/03 04:03:09;;;;;;;5.30;3.17;;;12.60;99.90;;;;;;5096162;28;20340;-61
2021/06/03 04:05:38;;;;;;;9.15;2.63;;;12.70;99.90;;;;;;5096506;28;20039;-61
2021/06/03 04:08:06;;;;;;;7.95;3.17;;;12.80;99.90;;;;;;5097136;28;20032;-62
2021/06/03 04:10:34;;;;;;;9.27;3.22;;;12.80;99.90;;;;;;5097424;28;20087;-61
2021/06/03 04:13:02;;;;;;;5.95;2.70;;;12.90;99.90;;;;;;5079430;28;20025;-61
2021/06/03 04:15:29;;;;;;;8.93;2.55;;;12.90;99.90;;;;;;5097862;28;20048;-61
2021/06/03 04:17:57;;;;;;;7.10;2.90;;;12.90;99.90;;;;;;5097342;28;20408;-61
2021/06/03 04:20:25;;;;;;;10.98;3.00;;;12.90;99.90;;;;;;5097130;28;20028;-61
2021/06/03 04:22:53;;;;;;;8.55;3.30;;;12.90;99.90;;;;;;5079575;28;20095;-61
2021/06/03 04:25:21;;;;;;;4.22;2.83;;;12.90;99.90;;;;;;5097057;28;20020;-61
2021/06/03 04:27:49;;;;;;;6.03;3.50;;;12.90;99.90;;;;;;5078485;28;20047;-61
2021/06/03 04:30:19;;;;;;;9.57;3.10;;;12.90;99.90;;;;;;5096369;28;20432;-61
2021/06/03 04:32:46;;;;;;;4.15;2.50;;;12.90;99.90;;;;;;5096828;28;20066;-62
2021/06/03 04:35:17;;;;;;;6.18;3.33;;;12.90;99.90;;;;;;5096272;28;20016;-61
2021/06/03 04:37:48;;;;;;;6.80;2.85;;;12.90;99.90;;;;;;5096049;28;20075;-62
2021/06/03 04:40:22;;;;;;;5.28;2.97;;;13.00;99.90;;;;;;5078398;28;20454;-62
2021/06/03 04:42:51;;;;;;;9.85;3.25;;;13.10;99.90;;;;;;5096680;28;20031;-62
2021/06/03 04:45:21;;;;;;;8.15;3.10;;;13.20;99.90;;;;;;5096130;28;20297;-62
2021/06/03 04:47:48;;;;;;;8.05;3.10;;;13.40;99.90;;;;;;5098455;28;20039;-61
2021/06/03 04:50:19;;;;;;;6.30;3.05;;;13.60;99.90;;;;;;5082914;28;20315;-63
2021/06/03 04:52:50;;;;;;;14.10;3.00;;;13.80;99.90;;;;;;5101014;28;20311;-63
2021/06/03 04:55:22;;;;;;;9.15;3.00;;;14.00;99.90;;;;;;5100561;28;20016;-62
2021/06/03 04:57:50;;;;;;;7.53;3.30;;;14.20;99.90;;;;;;5101037;28;20023;-62
2021/06/03 05:00:30;;;;;;;12.15;3.38;;;14.40;99.90;;;;;;5082672;28;20020;-66
2021/06/03 05:02:59;;;;;;;8.90;2.75;;;14.60;99.90;;;;;;5100520;28;20120;-65
2021/06/03 05:05:27;;;;;;;4.95;2.78;;;14.80;99.90;;;;;;5100406;28;20096;-65
2021/06/03 05:07:55;;;;;;;6.20;3.75;;;15.00;99.90;;;;;;5099860;28;20016;-65
2021/06/03 05:10:24;;;;;;;6.80;2.38;;;15.20;99.90;;;;;;5100143;28;20044;-66
2021/06/03 05:12:52;;;;;;;11.60;3.60;;;15.30;99.90;;;;;;5099422;28;20016;-66
2021/06/03 05:15:21;;;;;;;6.45;2.70;;;15.50;99.90;;;;;;5099794;28;20023;-65
2021/06/03 05:17:51;;;;;;;5.30;2.70;;;15.70;99.90;;;;;;5099197;28;20042;-67
2021/06/03 05:20:20;;;;;;;9.68;2.55;;;15.90;99.90;;;;;;5099110;28;20059;-66
2021/06/03 05:22:49;;;;;;;7.85;2.63;;;16.10;99.90;;;;;;5099075;28;20467;-66
2021/06/03 05:25:18;;;;;;;5.90;2.42;;;16.20;99.90;;;;;;5099975;28;20316;-60
2021/06/03 05:27:46;;;;;;;10.00;2.80;;;16.40;99.90;;;;;;5099802;28;20277;-60
2021/06/03 05:30:16;;;;;;;4.45;2.45;;;16.50;99.90;;;;;;5082092;28;20028;-60
2021/06/03 05:32:44;;;;;;;6.88;2.42;;;16.70;99.90;;;;;;5099762;28;20100;-60
2021/06/03 05:35:14;;;;;;;4.65;2.75;;;16.80;99.90;;;;;;5081897;28;20024;-60
2021/06/03 05:37:43;;;;;;;5.15;2.30;;;17.00;99.90;;;;;;5099795;28;20035;-62
2021/06/03 05:40:14;;;;;;;9.35;2.80;;;17.10;99.90;;;;;;5099846;28;20020;-62
2021/06/03 05:42:42;;;;;;;7.18;3.00;;;17.20;99.90;;;;;;5081807;28;20032;-62
2021/06/03 05:45:11;;;;;;;5.15;2.40;;;17.30;99.90;;;;;;5081464;28;20058;-63
2021/06/03 05:47:39;;;;;;;4.30;2.90;;;17.40;99.90;;;;;;5098667;28;20036;-65
2021/06/03 05:50:10;;;;;;;5.50;2.65;;;17.50;99.90;;;;;;5098797;28;20023;-64
2021/06/03 05:52:39;;;;;;;5.38;2.80;;;17.70;99.90;;;;;;5098996;28;20025;-65
2021/06/03 05:55:08;;;;;;;8.18;3.00;;;17.80;99.90;;;;;;5098605;28;20104;-63
2021/06/03 05:57:36;;;;;;;4.97;2.70;;;17.90;99.90;;;;;;5098534;28;20031;-64
2021/06/03 06:00:10;;;;;;;6.70;3.28;;;18.00;99.90;;;;;;5098395;28;20117;-60
2021/06/03 06:02:51;;;;;;;5.82;2.72;;;18.20;99.90;;;;;;5098545;28;20039;-61
2021/06/03 06:08:07;;;;;;;3.72;2.50;;;18.50;99.90;;;;;;5099266;28;20097;-61
2021/06/03 06:10:36;;;;;;;3.25;2.22;;;18.70;99.90;;;;;;5099095;28;20031;-61
2021/06/03 06:13:05;;;;;;;3.70;2.10;;;18.80;99.90;;;;;;5098937;28;20438;-61
2021/06/03 06:15:34;;;;;;;9.43;3.05;;;18.90;99.90;;;;;;5099345;28;20024;-67
2021/06/03 06:18:02;;;;;;;4.75;2.83;;;19.00;99.90;;;;;;5099660;28;20396;-62
2021/06/03 06:20:30;;;;;;;3.30;2.10;;;19.10;99.90;;;;;;5099332;28;20348;-61
2021/06/03 06:22:58;;;;;;;3.58;1.90;;;19.30;99.90;;;;;;5099183;28;20081;-60
2021/06/03 06:25:27;;;;;;;5.15;2.28;;;19.40;99.90;;;;;;5098239;28;20028;-60
2021/06/03 06:27:55;;;;;;;4.07;2.00;;;19.40;99.90;;;;;;5098312;28;20024;-60
2021/06/03 06:30:24;;;;;;;3.35;2.28;;;19.50;99.90;;;;;;5098095;28;20157;-62
2021/06/03 06:32:52;;;;;;;4.03;2.22;;;19.50;99.90;;;;;;5098513;28;20056;-62
2021/06/03 06:35:19;;;;;;;4.85;2.13;;;19.60;98.70;;;;;;5098203;28;20028;-61
2021/06/03 06:37:48;;;;;;;5.25;2.30;;;19.70;98.40;;;;;;5097731;28;20074;-60
2021/06/03 06:40:16;;;;;;;4.93;2.17;;;19.80;98.30;;;;;;5098007;28;20012;-61
2021/06/03 06:42:45;;;;;;;3.45;2.08;;;19.90;98.50;;;;;;5097833;28;20091;-61
2021/06/03 06:45:14;;;;;;;5.50;2.30;;;20.00;98.20;;;;;;5079973;28;20047;-64
2021/06/03 06:47:42;;;;;;;4.25;2.03;;;20.10;98.20;;;;;;5098099;28;20039;-61
2021/06/03 06:50:10;;;;;;;5.95;2.60;;;20.30;97.80;;;;;;5080629;28;20103;-61
2021/06/03 06:52:38;;;;;;;5.28;2.25;;;20.50;96.50;;;;;;5098280;28;20088;-61
2021/06/03 06:55:07;;;;;;;4.68;2.30;;;20.60;96.70;;;;;;5098710;28;20024;-60
2021/06/03 06:57:35;;;;;;;5.00;2.15;;;20.80;96.50;;;;;;5081011;28;20055;-61
2021/06/03 07:00:08;;;;;;;7.20;2.45;;;21.00;95.60;;;;;;5098433;28;20103;-61
2021/06/03 07:02:36;;;;;;;4.43;2.30;;;21.10;95.20;;;;;;5073372;28;20106;-62
2021/06/03 07:05:07;;;;;;;6.95;2.15;;;21.20;95.30;;;;;;5077577;28;20020;-62
2021/06/03 07:07:35;;;;;;;4.43;2.42;;;21.40;94.90;;;;;;5076755;28;20036;-61
2021/06/03 07:10:06;;;;;;;6.05;2.10;;;21.50;94.20;;;;;;5058435;28;20066;-61
2021/06/03 07:12:34;;;;;;;6.75;2.22;;;21.60;94.20;;;;;;5077139;28;20062;-61
2021/06/03 07:15:03;;;;;;;3.45;1.98;;;21.60;94.10;;;;;;5077136;28;20017;-61
2021/06/03 07:17:31;;;;;;;5.72;2.20;;;21.70;93.60;;;;;;5076796;28;20340;-61
2021/06/03 07:19:59;;;;;;;11.77;2.40;;;21.70;94.10;;;;;;5076704;28;20115;-61
2021/06/03 07:22:28;;;;;;;4.57;2.55;;;21.80;94.30;;;;;;5076378;28;20028;-61
2021/06/03 07:24:55;;;;;;;4.05;2.50;;;21.80;93.70;;;;;;5076810;28;20100;-61
2021/06/03 07:27:24;;;;;;;4.68;2.15;;;21.90;93.40;;;;;;5059834;28;20058;-61
2021/06/03 07:29:57;;;;;;;5.20;2.17;;;21.80;93.60;;;;;;5077543;28;20044;-63
2021/06/03 07:32:29;;;;;;;3.72;2.30;;;21.90;93.90;;;;;;5077324;28;20332;-63
2021/06/03 07:34:57;;;;;;;4.45;2.40;;;22.00;93.70;;;;;;5060871;28;20025;-64
2021/06/03 07:37:25;;;;;;;4.10;2.30;;;22.10;93.60;;;;;;5077504;28;20029;-64
2021/06/03 07:39:53;;;;;;;3.75;2.60;;;22.20;93.50;;;;;;5060459;28;20021;-64
2021/06/03 07:42:21;;;;;;;5.53;2.47;;;22.40;92.60;;;;;;5077392;28;20025;-64
2021/06/03 07:44:48;;;;;;;6.85;2.20;;;22.50;92.60;;;;;;5077411;28;20110;-64
2021/06/03 07:47:16;;;;;;;4.95;2.10;;;22.60;92.30;;;;;;5059073;28;20404;-64
2021/06/03 07:49:44;;;;;;;2.75;1.83;;;22.70;91.30;;;;;;5076582;28;20032;-63
2021/06/03 07:52:12;;;;;;;4.18;2.40;;;22.80;90.70;;;;;;5076349;28;20408;-63
2021/06/03 07:54:40;;;;;;;5.53;1.90;;;22.80;90.50;;;;;;5076424;28;20021;-63
2021/06/03 07:57:07;;;;;;;4.45;2.30;;;22.80;90.30;;;;;;5076939;28;20021;-63
2021/06/03 07:59:35;;;;;;;3.83;1.95;;;22.90;90.30;;;;;;5077061;28;20023;-63
2021/06/03 08:02:03;;;;;;;5.28;2.28;;;22.90;90.30;;;;;;5078230;28;20404;-66
2021/06/03 08:04:31;;;;;;;2.78;1.58;;;23.00;88.70;;;;;;5096930;28;20028;-63
2021/06/03 08:06:59;;;;;;;5.55;1.90;;;23.00;88.60;;;;;;5097219;28;20035;-63
2021/06/03 08:09:26;;;;;;;4.28;2.05;;;23.10;89.30;;;;;;5097636;28;20063;-63
2021/06/03 08:11:55;;;;;;;5.15;2.10;;;23.20;88.60;;;;;;5097321;28;20020;-62
2021/06/03 08:14:23;;;;;;;3.40;2.22;;;23.30;87.00;;;;;;5079666;28;20027;-64
2021/06/03 08:16:51;;;;;;;5.60;2.20;;;23.40;85.20;;;;;;5097276;28;20350;-63
2021/06/03 08:19:20;;;;;;;6.13;2.17;;;23.50;84.50;;;;;;5097954;28;20039;-63
2021/06/03 08:21:49;;;;;;;3.95;1.90;;;23.60;83.60;;;;;;5098344;28;20028;-62
2021/06/03 08:24:17;;;;;;;4.82;2.30;;;23.80;84.10;;;;;;5101719;28;20039;-62
2021/06/03 08:26:50;;;;;;;8.95;2.08;;;24.00;84.30;;;;;;5100201;28;20304;-63
2021/06/03 08:29:19;;;;;;;5.35;1.70;;;24.10;83.30;;;;;;5082474;28;20054;-63
2021/06/03 08:31:48;;;;;;;13.45;2.60;;;24.30;82.70;;;;;;5100289;28;20028;-63
2021/06/03 08:34:18;;;;;;;3.40;1.83;;;24.50;83.10;;;;;;5100341;28;20045;-63
2021/06/03 08:36:48;;;;;;;3.72;2.10;;;24.70;82.40;;;;;;5082198;28;20462;-63
2021/06/03 08:39:16;;;;;;;4.03;1.92;;;24.90;81.40;;;;;;5100340;28;20443;-63
2021/06/03 08:41:45;;;;;;;13.35;2.65;;;25.10;80.20;;;;;;5082128;28;20031;-62
2021/06/03 08:44:14;;;;;;;2.25;1.70;;;25.30;78.30;;;;;;5100013;28;20020;-63
2021/06/03 08:46:43;;;;;;;3.10;1.80;;;25.40;77.40;;;;;;5100413;28;20031;-64
2021/06/03 08:49:11;;;;;;;6.97;2.00;;;25.50;77.30;;;;;;5101033;28;20024;-62
2021/06/03 08:51:39;;;;;;;7.85;2.00;;;25.60;76.10;;;;;;5100706;28;20067;-64
2021/06/03 08:54:07;;;;;;;3.33;1.67;;;25.80;74.80;;;;;;5082822;28;20411;-64
2021/06/03 08:56:36;;;;;;;4.43;1.58;;;25.80;73.80;;;;;;5100792;28;20090;-64
2021/06/03 08:59:05;;;;;;;2.45;1.63;;;26.00;73.00;;;;;;5101307;28;20064;-64
2021/06/03 09:01:33;;;;;;;2.75;1.67;;;26.00;73.00;;;;;;5101119;28;20028;-64
2021/06/03 09:04:00;;;;;;;3.72;1.90;;;26.10;72.30;;;;;;5099872;28;20058;-64
2021/06/03 09:06:28;;;;;;;4.78;1.50;;;26.20;72.40;;;;;;5099427;28;20047;-64
2021/06/03 09:08:58;;;;;;;3.15;1.90;;;26.30;72.00;;;;;;5099470;28;20028;-64
2021/06/03 09:11:31;;;;;;;2.70;2.00;;;26.40;71.40;;;;;;5099944;28;20114;-64
2021/06/03 09:14:06;;;;;;;2.97;1.60;;;26.50;70.70;;;;;;5099484;28;20081;-64
2021/06/03 09:16:37;;;;;;;2.60;1.50;;;26.60;70.40;;;;;;5099768;28;20091;-64
2021/06/03 09:19:15;;;;;;;4.60;1.70;;;26.70;69.90;;;;;;5081394;28;20039;-64
2021/06/03 09:21:48;;;;;;;6.10;2.03;;;26.80;70.10;;;;;;5099502;28;20412;-64
2021/06/03 09:24:19;;;;;;;6.25;1.77;;;26.80;69.50;;;;;;5099826;28;20036;-64
2021/06/03 09:26:57;;;;;;;3.97;1.70;;;26.80;69.40;;;;;;5099940;28;20111;-64
2021/06/03 09:29:27;;;;;;;4.72;1.80;;;26.80;69.90;;;;;;5082236;28;20316;-65
2021/06/03 09:32:08;;;;;;;4.47;1.77;;;26.80;69.10;;;;;;5100520;28;20095;-64
2021/06/03 09:34:37;;;;;;;3.03;1.98;;;26.80;68.70;;;;;;5099513;28;20412;-64
2021/06/03 09:37:07;;;;;;;4.18;1.85;;;26.80;68.40;;;;;;5100054;28;20043;-64
2021/06/03 09:39:39;;;;;;;4.85;1.70;;;26.80;69.00;;;;;;5099893;28;20020;-65
2021/06/03 09:42:11;;;;;;;7.65;1.85;;;26.70;69.20;;;;;;5099212;28;20030;-65
2021/06/03 09:44:53;;;;;;;2.83;1.70;;;26.70;69.10;;;;;;5099304;28;20115;-65
2021/06/03 09:47:39;;;;;;;3.40;1.88;;;26.70;70.20;;;;;;5098647;28;20055;-65
2021/06/03 09:50:11;;;;;;;8.70;2.10;;;26.80;69.50;;;;;;5098829;28;20035;-65
2021/06/03 09:52:39;;;;;;;3.55;1.73;;;26.80;69.20;;;;;;5098780;28;20036;-65
2021/06/03 09:55:14;;;;;;;3.78;1.90;;;26.90;68.70;;;;;;5098822;28;20346;-64
2021/06/03 09:57:45;;;;;;;4.82;1.95;;;26.90;68.50;;;;;;5098956;28;20016;-64
2021/06/03 10:00:21;;;;;;;4.85;1.70;;;27.10;68.60;;;;;;5098406;28;20334;-64
2021/06/03 10:03:01;;;;;;;2.83;1.80;;;27.20;68.60;;;;;;5098834;28;20052;-64
2021/06/03 10:05:28;;;;;;;7.75;2.05;;;27.30;66.10;;;;;;5099364;28;20044;-64
2021/06/03 10:07:58;;;;;;;3.15;1.70;;;27.30;66.40;;;;;;5099561;28;20034;-64
2021/06/03 10:10:27;;;;;;;2.80;1.73;;;27.40;67.10;;;;;;5099415;28;20032;-64
2021/06/03 10:12:55;;;;;;;4.82;2.05;;;27.40;67.50;;;;;;5099273;28;20020;-65
2021/06/03 10:15:23;;;;;;;4.93;2.00;;;27.50;66.90;;;;;;5099487;28;20016;-65
2021/06/03 10:18:00;;;;;;;2.88;1.60;;;27.70;66.60;;;;;;5099746;28;20046;-64
2021/06/03 10:20:41;;;;;;;3.33;1.80;;;27.90;66.30;;;;;;5098820;28;20474;-65
2021/06/03 10:23:13;;;;;;;3.92;2.00;;;28.20;64.70;;;;;;5098120;28;20032;-64
2021/06/03 10:25:43;;;;;;;3.17;1.48;;;28.40;64.80;;;;;;5097923;28;20058;-65
2021/06/03 10:28:14;;;;;;;4.03;1.65;;;28.60;63.30;;;;;;5098504;28;20024;-65
2021/06/03 10:30:47;;;;;;;3.40;1.58;;;28.90;62.90;;;;;;5097768;28;20030;-65
2021/06/03 10:33:18;;;;;;;3.83;1.23;;;29.10;61.70;;;;;;5097720;28;20020;-65
2021/06/03 10:35:49;;;;;;;2.38;1.27;;;29.30;60.20;;;;;;5097523;28;20020;-65
2021/06/03 10:38:20;;;;;;;1.83;1.17;;;29.50;59.50;;;;;;5098041;28;20324;-65
2021/06/03 10:41:02;;;;;;;6.18;1.58;;;29.60;58.90;;;;;;5098389;28;20476;-65
2021/06/03 10:43:34;;;;;;;3.40;1.40;;;29.80;59.20;;;;;;5098538;28;20024;-65
2021/06/03 10:46:03;;;;;;;3.30;1.25;;;29.90;58.90;;;;;;5097626;28;20021;-65
2021/06/03 10:48:30;;;;;;;3.15;1.50;;;30.10;57.50;;;;;;5098861;28;20048;-65
2021/06/03 10:50:58;;;;;;;4.70;1.70;;;30.20;57.40;;;;;;5098567;28;20034;-65
2021/06/03 10:53:30;;;;;;;4.53;1.67;;;30.30;57.40;;;;;;5098632;28;20363;-65
2021/06/03 10:56:21;;;;;;;2.40;1.30;;;30.40;56.50;;;;;;5098323;28;20059;-64
2021/06/03 10:58:49;;;;;;;2.70;1.33;;;30.50;55.70;;;;;;5097733;28;20074;-65
2021/06/03 11:01:22;;;;;;;2.70;1.30;;;30.50;55.70;;;;;;5079632;28;20026;-65
2021/06/03 11:04:04;;;;;;;2.15;1.27;;;30.60;55.40;;;;;;5097332;28;20054;-65
2021/06/03 11:06:46;;;;;;;2.80;1.20;;;30.60;55.80;;;;;;5096909;28;20396;-65
2021/06/03 11:09:14;;;;;;;2.45;1.38;;;30.60;56.00;;;;;;5080267;28;20016;-65
2021/06/03 11:11:47;;;;;;;3.95;1.52;;;30.60;56.30;;;;;;5097196;28;20103;-65
2021/06/03 11:14:22;;;;;;;2.42;1.20;;;30.60;56.60;;;;;;5096976;28;20020;-65
2021/06/03 11:16:52;;;;;;;2.47;1.23;;;30.60;58.10;;;;;;5097118;28;20054;-65
2021/06/03 11:19:27;;;;;;;3.05;1.23;;;30.50;59.40;;;;;;5097564;28;20028;-65
2021/06/03 11:22:01;;;;;;;2.03;1.30;;;30.60;59.10;;;;;;5097737;28;20462;-64
2021/06/03 11:24:34;;;;;;;1.58;1.08;;;30.60;57.60;;;;;;5097942;28;20345;-65
2021/06/03 11:27:15;;;;;;;2.42;1.45;;;30.70;57.10;;;;;;5097707;28;20107;-65
2021/06/03 11:29:50;;;;;;;1.73;0.90;;;30.70;55.90;;;;;;5097888;28;20031;-65
2021/06/03 11:32:19;;;;;;;;;;;30.80;56.40;;;;;;5098046;28;20111;-64
2021/06/03 11:34:50;;;;;;;2.00;0.98;;;30.90;57.00;;;;;;5097995;28;19953;-65
2021/06/03 11:37:23;;;;;;;4.80;1.27;;;31.00;57.20;;;;;;5079144;28;20362;-66
2021/06/03 11:39:54;;;;;;;2.22;0.90;;;31.20;56.90;;;;;;5096646;28;20099;-65
2021/06/03 11:42:32;;;;;;;3.08;1.15;;;31.20;57.40;;;;;;5097294;28;20020;-65
2021/06/03 11:45:20;;;;;;;1.85;1.10;;;31.20;56.80;;;;;;5078686;28;20063;-65
2021/06/03 11:47:48;;;;;;;2.45;0.93;;;31.20;56.40;;;;;;5096421;28;20020;-64
2021/06/03 11:50:18;;;;;;;2.28;1.20;;;31.20;57.30;;;;;;5097215;28;20392;-64
2021/06/03 11:52:56;;;;;;;2.30;1.30;;;31.10;57.60;;;;;;5096712;28;20016;-65
2021/06/03 11:55:36;;;;;;;1.77;1.08;;;31.10;57.80;;;;;;5096830;28;20383;-65
2021/06/03 11:58:30;;;;;;;2.72;1.10;;;31.00;55.60;;;;;;5097245;28;20100;-64
2021/06/03 12:01:01;;;;;;;1.83;1.00;;;30.80;55.70;;;;;;5097727;28;20012;-65
2021/06/03 12:03:32;;;;;;;4.50;1.50;;;30.60;56.50;;;;;;5097328;28;20055;-65
2021/06/03 12:06:06;;;;;;;2.00;1.30;;;30.40;54.80;;;;;;5097300;28;20024;-64
2021/06/03 12:08:47;;;;;;;2.30;1.20;;;30.10;55.10;;;;;;5079494;28;20074;-64
2021/06/03 12:11:16;;;;;;;2.25;1.20;;;29.90;54.90;;;;;;5097314;28;20028;-64
2021/06/03 12:13:46;;;;;;;2.60;1.13;;;29.60;55.80;;;;;;5097753;28;20020;-63
2021/06/03 12:16:14;;;;;;;1.85;1.27;;;29.20;56.40;;;;;;5096180;28;20024;-63
2021/06/03 12:18:44;;;;;;;3.10;1.63;;;28.90;57.20;;;;;;5097234;28;20358;-64
2021/06/03 12:21:13;;;;;;;3.45;1.00;;;28.70;57.50;;;;;;5096845;28;20044;-64
2021/06/03 12:23:52;;;;;;;2.78;1.20;;;28.50;58.40;;;;;;5096395;28;20081;-64
2021/06/03 12:26:23;;;;;;;4.95;1.20;;;28.30;58.80;;;;;;5095864;28;20024;-63
2021/06/03 12:28:51;;;;;;;6.53;1.30;;;28.10;60.30;;;;;;5096164;28;20021;-65
2021/06/03 12:31:28;;;;;;;4.75;1.38;;;27.90;64.20;;;;;;5078100;28;20047;-62
2021/06/03 12:33:56;;;;;;;5.18;1.52;;;27.50;67.60;;;;;;5096346;28;20053;-65
2021/06/03 12:36:25;;;;;;;2.67;1.42;;;27.20;70.40;;;;;;5096968;28;20028;-65
2021/06/03 12:39:02;;;;;;;5.65;1.98;;;26.80;73.60;;;;;;5097224;28;20032;-65
2021/06/03 12:41:37;;;;;;;5.22;2.08;;;26.40;78.20;;;;;;5096848;28;20039;-63
2021/06/03 12:44:19;;;;;;;4.85;1.80;;;25.80;74.10;;;;;;5097429;28;20020;-63
2021/06/03 12:46:53;;;;;;;2.63;1.73;;;24.90;78.40;;;;;;5096798;28;20032;-63
2021/06/03 12:49:28;;;;;;;3.78;1.50;;;24.10;81.80;;;;;;5096897;28;20024;-65
2021/06/03 12:51:57;;;;;;;;;;;23.10;86.70;;;;;;5096965;28;20077;-65
2021/06/03 12:54:32;;;;;;;4.70;1.52;;;22.40;89.70;;;;;;5095925;28;19910;-65
2021/06/03 12:57:01;;;;;;;2.92;1.88;;;21.90;91.90;;;;;;5095633;28;20056;-65
2021/06/03 12:59:32;;;;;;;2.67;1.70;;;21.60;94.10;;;;;;5077786;28;20055;-65
2021/06/03 13:02:03;;;;;;;7.38;2.67;;;21.30;98.10;;;;;;5095811;28;20196;-65
2021/06/03 13:04:45;;;;;;;6.57;1.83;;;21.10;99.90;;;;;;5095649;28;20039;-65